sim
Sign-in with your pilot id or email,
or register
Callsign
Passwort

Schedule Details

Flight Number: OEO4088
Departure: Munich Airport (EDDM) at 17:30
Arrival: Madrid Barajas Airport (LEMD) at 20:10

Weather Information
Getting current METAR information for EDDM 191350Z VRB03KT CAVOK 22/12 Q1018 NOSIG
Getting current METAR information for LEMD 191404Z 26010G25KT 230V290 7000 RA SCT030 BKN055 BKN070 17/15 Q1017 NOSIG

Schedule Frequency

Route Map